Time;durP1;ratioP1;P1;durP2;ratioP2;P2;SDS_P1;SDS_P2;PMS_P1;PMS_P2;Temp;Humidity;BMP_temperature;BMP_pressure;BME280_temperature;BME280_humidity;BME280_pressure;Samples;Min_cycle;Max_cycle;Signal;HPM_P1;HPM_P2
2023/09/26 00:02:25;;;;;;;6.03;2.77;;;;;;;19.15;66.11;100877.03;4980196;28;20960;-68
2023/09/26 00:04:51;;;;;;;4.00;2.40;;;;;;;19.15;65.78;100882.75;4970738;28;20468;-68
2023/09/26 00:07:17;;;;;;;5.40;2.80;;;;;;;19.16;65.69;100883.59;4991023;28;20188;-68
2023/09/26 00:09:43;;;;;;;4.17;2.47;;;;;;;19.16;65.64;100890.16;5001543;28;21003;-70
2023/09/26 00:12:08;;;;;;;4.37;2.43;;;;;;;19.15;65.63;100888.47;4993138;28;20428;-70
2023/09/26 00:14:34;;;;;;;5.53;2.93;;;;;;;19.16;65.98;100897.91;4993778;28;20186;-70
2023/09/26 00:16:59;;;;;;;6.03;3.10;;;;;;;19.15;65.36;100899.94;4977214;28;20237;-70
2023/09/26 00:19:25;;;;;;;3.73;2.43;;;;;;;19.15;65.77;100902.78;4969147;28;20177;-71
2023/09/26 00:21:50;;;;;;;4.47;2.60;;;;;;;19.15;66.07;100905.66;4978045;28;20188;-70
2023/09/26 00:24:16;;;;;;;5.23;3.00;;;;;;;19.15;65.28;100899.94;5014122;28;20204;-70
2023/09/26 00:26:41;;;;;;;4.10;2.80;;;;;;;19.15;65.66;100891.34;5010150;28;20186;-71
2023/09/26 00:29:06;;;;;;;6.07;3.03;;;;;;;19.15;65.74;100894.22;4975997;28;20161;-71
2023/09/26 00:31:32;;;;;;;4.03;2.53;;;;;;;19.13;65.72;100893.75;4993037;28;20162;-70
2023/09/26 00:33:57;;;;;;;5.03;2.77;;;;;;;19.14;65.86;100886.84;4977914;28;20193;-71
2023/09/26 00:36:23;;;;;;;3.80;2.20;;;;;;;19.14;65.52;100894.56;4973650;28;20174;-71
2023/09/26 00:38:48;;;;;;;3.50;2.30;;;;;;;19.15;65.83;100885.63;4995843;28;20184;-70
2023/09/26 00:41:14;;;;;;;3.87;2.10;;;;;;;19.14;65.81;100892.56;5003185;28;20181;-71
2023/09/26 00:43:39;;;;;;;4.00;2.63;;;;;;;19.14;65.71;100886.84;4993657;28;20328;-70
2023/09/26 00:46:05;;;;;;;4.30;2.83;;;;;;;19.13;65.48;100890.91;5011518;28;20157;-71
2023/09/26 00:48:31;;;;;;;4.53;2.70;;;;;;;19.13;65.30;100890.91;4978168;28;20185;-71
2023/09/26 00:50:56;;;;;;;5.33;2.83;;;;;;;19.13;65.80;100893.75;5011316;28;20184;-71
2023/09/26 00:53:23;;;;;;;3.73;2.63;;;;;;;19.12;65.72;100892.06;5011419;28;20700;-70
2023/09/26 00:55:58;;;;;;;4.33;2.63;;;;;;;19.12;65.32;100903.53;4989185;28;20247;-70
2023/09/26 00:58:23;;;;;;;4.47;2.70;;;;;;;19.12;66.12;100894.94;4992339;28;20534;-71
2023/09/26 01:00:55;;;;;;;3.63;2.37;;;;;;;19.14;65.85;100888.84;5013687;28;20644;-71
2023/09/26 01:03:21;;;;;;;4.13;2.30;;;;;;;19.12;65.51;100889.22;5013456;28;20181;-71
2023/09/26 01:05:46;;;;;;;3.93;2.43;;;;;;;19.13;65.58;100893.75;4997237;28;20973;-71
2023/09/26 01:08:11;;;;;;;5.53;2.67;;;;;;;19.13;65.70;100898.66;4996727;28;20490;-71
2023/09/26 01:10:37;;;;;;;3.77;2.67;;;;;;;19.12;65.30;100892.06;4995649;28;20213;-71
2023/09/26 01:13:03;;;;;;;5.67;2.47;;;;;;;19.13;65.46;100899.50;4977040;28;20169;-70
2023/09/26 01:15:32;;;;;;;4.57;2.27;;;;;;;19.13;65.53;100895.78;4961695;28;20204;-70
2023/09/26 01:17:57;;;;;;;4.37;2.40;;;;;;;19.12;65.78;100894.13;4994351;28;20189;-71
2023/09/26 01:20:24;;;;;;;3.67;2.43;;;;;;;19.12;65.57;100894.94;4960563;28;20412;-71
2023/09/26 01:22:50;;;;;;;6.47;3.00;;;;;;;19.12;65.55;100897.00;4987191;28;20271;-71
2023/09/26 01:25:15;;;;;;;4.67;2.80;;;;;;;19.12;65.70;100894.13;5012220;28;20527;-71
2023/09/26 01:27:41;;;;;;;4.87;2.57;;;;;;;19.12;65.57;100885.53;5011984;28;20221;-71
2023/09/26 01:30:08;;;;;;;3.77;2.33;;;;;;;19.11;65.58;100881.03;4995160;28;20182;-70
2023/09/26 01:32:33;;;;;;;3.70;2.20;;;;;;;19.11;66.07;100881.03;5008831;28;20545;-71
2023/09/26 01:34:59;;;;;;;4.00;2.40;;;;;;;19.10;65.90;100885.06;4995331;28;20423;-70
2023/09/26 01:37:24;;;;;;;3.33;2.30;;;;;;;19.10;65.73;100880.19;5003860;28;20738;-70
2023/09/26 01:39:52;;;;;;;5.40;2.87;;;;;;;19.11;65.63;100881.84;4993834;28;20173;-71
2023/09/26 01:42:18;;;;;;;4.10;2.50;;;;;;;19.11;65.52;100875.31;4979370;28;20227;-71
2023/09/26 01:44:43;;;;;;;4.50;2.33;;;;;;;19.10;65.49;100877.31;4994681;28;21270;-70
2023/09/26 01:47:14;;;;;;;3.60;2.37;;;;;;;19.10;65.62;100871.59;5013302;28;20189;-70
2023/09/26 01:49:41;;;;;;;3.87;2.47;;;;;;;19.11;65.18;100875.31;4995493;28;20197;-71
2023/09/26 01:52:06;;;;;;;3.20;2.20;;;;;;;19.11;65.67;100870.38;5008009;28;20440;-71
2023/09/26 01:54:31;;;;;;;5.07;2.70;;;;;;;19.10;65.62;100877.31;4978970;28;20966;-71
2023/09/26 01:56:57;;;;;;;4.10;2.60;;;;;;;19.09;65.96;100878.53;4996121;28;20161;-70
2023/09/26 01:59:22;;;;;;;3.60;2.23;;;;;;;19.10;65.40;100883.03;4992677;28;20216;-70
2023/09/26 02:01:48;;;;;;;3.90;2.13;;;;;;;19.10;65.31;100874.47;5011588;28;20177;-71
2023/09/26 02:04:13;;;;;;;5.27;3.00;;;;;;;19.10;65.61;100882.19;4995881;28;20215;-71
2023/09/26 02:06:38;;;;;;;3.43;2.10;;;;;;;19.10;65.42;100885.91;5011210;28;20165;-71
2023/09/26 02:09:04;;;;;;;3.77;2.20;;;;;;;19.09;65.89;100881.38;4979542;28;20186;-71
2023/09/26 02:11:29;;;;;;;3.73;2.40;;;;;;;19.10;65.73;100885.91;4989719;28;20219;-71
2023/09/26 02:13:55;;;;;;;4.60;2.50;;;;;;;19.09;65.73;100878.53;4973532;28;20185;-71
2023/09/26 02:16:21;;;;;;;3.73;2.43;;;;;;;19.09;65.53;100887.13;4990646;28;20705;-71
2023/09/26 02:18:47;;;;;;;4.27;2.50;;;;;;;19.08;65.48;100885.47;4976215;28;20641;-71
2023/09/26 02:21:16;;;;;;;4.23;2.40;;;;;;;19.09;65.43;100892.84;4973107;28;20410;-71
2023/09/26 02:23:41;;;;;;;4.30;2.43;;;;;;;19.09;65.52;100889.13;4972387;28;20202;-70
2023/09/26 02:26:07;;;;;;;3.70;2.30;;;;;;;19.09;65.53;100889.13;4958836;28;20448;-71
2023/09/26 02:28:32;;;;;;;4.00;2.17;;;;;;;19.09;65.64;100889.13;4972625;28;20178;-70
2023/09/26 02:30:57;;;;;;;3.60;2.33;;;;;;;19.08;65.44;100881.75;4972765;28;20174;-70
2023/09/26 02:33:23;;;;;;;3.33;1.93;;;;;;;19.09;65.56;100889.13;4973282;28;20171;-70
2023/09/26 02:35:48;;;;;;;2.57;1.77;;;;;;;19.08;65.79;100882.59;4992329;28;20547;-70
2023/09/26 02:38:14;;;;;;;4.00;2.30;;;;;;;19.08;65.45;100884.63;4974272;28;20645;-70
2023/09/26 02:40:39;;;;;;;3.63;2.17;;;;;;;19.08;65.70;100884.63;4963754;28;20182;-70
2023/09/26 02:43:05;;;;;;;5.60;2.30;;;;;;;19.07;65.67;100880.91;4989374;28;20193;-71
2023/09/26 02:45:31;;;;;;;3.83;2.23;;;;;;;19.07;65.27;100878.03;4975223;28;20194;-70
2023/09/26 02:47:57;;;;;;;3.43;2.10;;;;;;;19.08;65.54;100879.75;4992597;28;20416;-71
2023/09/26 02:50:23;;;;;;;4.07;2.20;;;;;;;19.07;65.68;100875.19;4961337;28;20246;-71
2023/09/26 02:52:49;;;;;;;4.40;2.50;;;;;;;19.07;65.44;100880.91;4992252;28;20165;-71
2023/09/26 02:55:14;;;;;;;7.53;2.83;;;;;;;19.07;65.26;100880.09;4988180;28;20402;-71
2023/09/26 02:57:40;;;;;;;5.63;2.10;;;;;;;19.06;65.51;100873.53;4975478;28;20229;-71
2023/09/26 03:00:18;;;;;;;3.93;2.33;;;;;;;19.05;65.53;100869.03;4977167;28;20224;-71
2023/09/26 03:02:47;;;;;;;3.20;1.83;;;;;;;19.06;65.41;100875.59;4992521;28;20209;-71
2023/09/26 03:05:13;;;;;;;4.30;2.63;;;;;;;19.07;65.47;100872.31;4974465;28;20481;-71
2023/09/26 03:07:39;;;;;;;3.50;2.00;;;;;;;19.05;65.62;100866.16;4989361;28;20417;-71
2023/09/26 03:10:05;;;;;;;3.40;2.20;;;;;;;19.06;65.67;100873.53;4956377;28;20216;-71
2023/09/26 03:12:31;;;;;;;4.10;2.20;;;;;;;19.05;65.36;100866.16;4992918;28;20452;-71
2023/09/26 03:14:56;;;;;;;4.30;2.70;;;;;;;19.05;65.61;100866.16;4971740;28;20441;-71
2023/09/26 03:17:22;;;;;;;4.80;2.40;;;;;;;19.05;65.41;100863.28;4990575;28;20277;-67
2023/09/26 03:19:47;;;;;;;3.70;2.40;;;;;;;19.04;65.38;100855.06;4973455;28;20178;-71
2023/09/26 03:22:13;;;;;;;3.33;2.10;;;;;;;19.04;65.78;100853.06;4953555;28;20617;-71
2023/09/26 03:24:38;;;;;;;3.97;2.43;;;;;;;19.04;65.53;100846.50;4972262;28;20613;-71
2023/09/26 03:27:03;;;;;;;3.80;2.20;;;;;;;19.05;65.67;100860.44;4969953;28;20196;-71
2023/09/26 03:29:29;;;;;;;3.30;2.10;;;;;;;19.04;65.34;100861.63;4989355;28;20170;-71
2023/09/26 03:31:54;;;;;;;2.90;1.73;;;;;;;19.05;65.47;100857.56;4973910;28;20529;-71
2023/09/26 03:34:20;;;;;;;3.60;2.07;;;;;;;19.04;65.43;100863.66;4970903;28;20649;-71
2023/09/26 03:36:45;;;;;;;2.87;1.97;;;;;;;19.04;65.10;100863.66;4974663;28;20193;-71
2023/09/26 03:39:11;;;;;;;3.90;1.97;;;;;;;19.03;65.44;100862.00;4960263;28;20633;-71
2023/09/26 03:41:36;;;;;;;3.67;2.20;;;;;;;19.03;65.54;100854.25;4964990;28;20832;-71
2023/09/26 03:44:02;;;;;;;3.70;1.90;;;;;;;19.04;65.34;100855.06;4954634;28;20195;-71
2023/09/26 03:46:27;;;;;;;2.73;1.80;;;;;;;19.02;65.22;100855.44;4966966;28;20263;-71
2023/09/26 03:48:53;;;;;;;2.70;1.77;;;;;;;19.03;65.35;100856.28;4973249;28;20534;-71
2023/09/26 03:51:18;;;;;;;3.17;1.93;;;;;;;19.04;64.54;100857.94;4974642;28;20184;-71
2023/09/26 03:53:44;;;;;;;4.20;2.17;;;;;;;19.02;65.45;100866.88;4996745;28;20205;-71
2023/09/26 03:56:09;;;;;;;3.07;2.10;;;;;;;19.02;65.40;100860.34;4971190;28;20189;-71
2023/09/26 03:58:35;;;;;;;3.60;2.23;;;;;;;19.02;65.17;100861.16;4972799;28;20630;-71
2023/09/26 04:01:14;;;;;;;3.80;2.20;;;;;;;19.02;65.62;100860.34;4965979;28;20524;-71
2023/09/26 04:03:51;;;;;;;4.00;2.43;;;;;;;19.02;65.32;100868.94;4989709;28;20174;-71
2023/09/26 04:06:17;;;;;;;3.53;2.53;;;;;;;19.03;65.33;100862.00;4985967;28;20955;-71
2023/09/26 04:08:42;;;;;;;3.57;2.13;;;;;;;19.01;65.25;100865.22;4973550;28;20421;-71
2023/09/26 04:11:17;;;;;;;3.20;2.00;;;;;;;19.01;65.48;100865.22;5000723;28;20225;-71
2023/09/26 04:13:43;;;;;;;5.13;2.70;;;;;;;19.00;65.37;100855.00;4971448;28;20162;-71
2023/09/26 04:16:09;;;;;;;3.00;1.97;;;;;;;19.01;65.35;100861.56;4954543;28;20469;-71
2023/09/26 04:18:34;;;;;;;3.17;1.97;;;;;;;19.01;65.45;100847.25;4989323;28;20198;-71
2023/09/26 04:21:04;;;;;;;3.97;2.10;;;;;;;19.00;65.11;100849.25;4970867;28;20186;-71
2023/09/26 04:23:30;;;;;;;3.70;2.10;;;;;;;19.00;65.46;100845.56;4962981;28;20177;-71
2023/09/26 04:25:55;;;;;;;4.00;2.33;;;;;;;19.00;65.35;100852.13;4989345;28;20438;-71
2023/09/26 04:28:20;;;;;;;3.37;2.00;;;;;;;19.00;65.65;100852.13;4973777;28;20197;-71
2023/09/26 04:30:46;;;;;;;3.47;1.80;;;;;;;19.00;65.23;100849.25;4989057;28;20186;-71
2023/09/26 04:33:11;;;;;;;4.40;2.37;;;;;;;18.98;65.35;100845.97;4975066;28;20495;-71
2023/09/26 04:35:37;;;;;;;3.90;2.60;;;;;;;19.00;65.29;100846.41;4990736;28;20734;-71
2023/09/26 04:38:03;;;;;;;3.57;2.10;;;;;;;18.99;65.20;100847.63;4991745;28;20185;-71
2023/09/26 04:40:29;;;;;;;3.70;2.10;;;;;;;18.99;65.29;100839.03;4977582;28;20197;-71
2023/09/26 04:43:02;;;;;;;4.20;2.13;;;;;;;18.99;65.27;100850.47;4989751;28;20796;-71
2023/09/26 04:45:31;;;;;;;3.07;2.07;;;;;;;18.99;65.59;100849.63;4978868;28;20217;-71
2023/09/26 04:48:00;;;;;;;6.43;2.20;;;;;;;18.99;65.16;100847.63;4995018;28;20424;-71
2023/09/26 04:50:26;;;;;;;3.10;2.00;;;;;;;18.98;65.30;100848.81;4989077;28;20437;-71
2023/09/26 04:52:52;;;;;;;3.60;2.27;;;;;;;18.98;65.41;100843.09;4976400;28;20472;-71
2023/09/26 04:55:17;;;;;;;4.23;1.80;;;;;;;18.98;65.42;100840.25;4991160;28;20966;-71
2023/09/26 04:57:43;;;;;;;3.37;1.80;;;;;;;18.98;65.24;100840.25;4963894;28;20189;-71
2023/09/26 05:00:09;;;;;;;2.93;1.90;;;;;;;18.99;65.18;100841.03;4960896;28;20932;-71
2023/09/26 05:02:35;;;;;;;3.10;1.90;;;;;;;18.97;65.09;100847.13;4995117;28;20189;-71
2023/09/26 05:05:01;;;;;;;4.07;2.40;;;;;;;18.97;65.48;100850.00;4962625;28;20476;-70
2023/09/26 05:07:26;;;;;;;3.63;1.90;;;;;;;18.98;65.53;100853.69;4985147;28;20190;-71
2023/09/26 05:09:52;;;;;;;3.70;2.47;;;;;;;18.97;65.06;100847.13;4973792;28;20421;-71
2023/09/26 05:12:17;;;;;;;2.67;1.83;;;;;;;18.98;65.50;100859.41;4988970;28;20232;-71
2023/09/26 05:14:43;;;;;;;3.60;1.90;;;;;;;18.98;65.33;100850.84;4956053;28;20175;-71
2023/09/26 05:17:08;;;;;;;3.30;2.13;;;;;;;18.98;65.30;100853.69;4983340;28;20279;-71
2023/09/26 05:19:33;;;;;;;3.43;2.03;;;;;;;18.97;65.39;100852.84;4993102;28;20182;-71
2023/09/26 05:21:59;;;;;;;3.03;1.70;;;;;;;18.96;65.03;100851.19;5005159;28;20197;-71
2023/09/26 05:24:24;;;;;;;2.90;1.67;;;;;;;18.97;65.48;100855.72;4983003;28;20194;-71
2023/09/26 05:26:50;;;;;;;3.43;1.80;;;;;;;18.96;65.41;100856.94;4977915;28;20901;-70
2023/09/26 05:29:15;;;;;;;2.83;1.90;;;;;;;18.97;65.34;100858.59;4972383;28;20672;-70
2023/09/26 05:31:41;;;;;;;2.43;1.60;;;;;;;18.96;65.29;100858.97;4976696;28;20170;-70
2023/09/26 05:34:07;;;;;;;3.13;1.90;;;;;;;18.95;65.32;100857.28;4975316;28;20248;-71
2023/09/26 05:36:33;;;;;;;3.30;1.90;;;;;;;18.95;65.38;100849.56;4993832;28;21034;-71
2023/09/26 05:38:58;;;;;;;2.80;1.83;;;;;;;18.96;65.22;100853.25;4993624;28;20413;-71
2023/09/26 05:41:24;;;;;;;2.50;1.50;;;;;;;18.95;65.09;100855.28;4973786;28;20201;-71
2023/09/26 05:43:50;;;;;;;3.40;2.13;;;;;;;18.93;65.15;100857.69;4993415;28;20166;-71
2023/09/26 05:46:15;;;;;;;2.90;1.90;;;;;;;18.95;65.19;100855.28;4993598;28;20619;-71
2023/09/26 05:48:41;;;;;;;3.53;2.00;;;;;;;18.95;65.12;100865.88;4991769;28;20421;-71
2023/09/26 05:51:06;;;;;;;3.27;1.97;;;;;;;18.95;65.00;100865.88;4991549;28;20185;-71
2023/09/26 05:53:32;;;;;;;4.17;2.20;;;;;;;18.95;65.03;100869.56;4992954;28;20189;-70
2023/09/26 05:55:58;;;;;;;2.73;1.60;;;;;;;18.94;65.09;100865.06;4992885;28;20621;-71
2023/09/26 05:58:24;;;;;;;3.50;1.50;;;;;;;18.94;65.17;100876.50;4958101;28;20186;-71
2023/09/26 06:00:49;;;;;;;2.93;1.87;;;;;;;18.94;65.02;100882.22;4976015;28;20460;-71
2023/09/26 06:03:15;;;;;;;3.40;1.77;;;;;;;18.94;65.02;100879.38;4991711;28;20201;-71
2023/09/26 06:05:43;;;;;;;2.77;1.63;;;;;;;18.94;65.14;100885.09;4974736;28;20203;-71
2023/09/26 06:08:09;;;;;;;3.00;1.80;;;;;;;18.94;65.20;100887.13;4956240;28;20171;-71
2023/09/26 06:10:34;;;;;;;3.87;2.17;;;;;;;18.94;65.32;100887.13;4980988;28;20467;-71
2023/09/26 06:13:00;;;;;;;2.90;1.90;;;;;;;18.93;65.45;100882.59;4975792;28;20550;-71
2023/09/26 06:15:25;;;;;;;3.07;1.83;;;;;;;18.94;65.07;100887.13;4991539;28;20647;-71
2023/09/26 06:17:59;;;;;;;3.27;1.80;;;;;;;18.94;65.02;100892.84;4975904;28;20618;-71
2023/09/26 06:20:26;;;;;;;2.50;1.77;;;;;;;18.94;65.01;100887.94;4976913;28;20186;-71
2023/09/26 06:22:52;;;;;;;3.00;1.80;;;;;;;18.93;65.32;100894.88;4993360;28;20421;-71
2023/09/26 06:25:17;;;;;;;2.80;1.80;;;;;;;18.94;64.74;100890.81;4987004;28;20457;-71
2023/09/26 06:27:42;;;;;;;3.50;1.63;;;;;;;18.93;64.73;100886.31;4974194;28;20166;-71
2023/09/26 06:30:10;;;;;;;3.37;2.00;;;;;;;18.94;65.11;100898.56;4974343;28;20171;-71
2023/09/26 06:32:35;;;;;;;2.60;1.60;;;;;;;18.92;65.15;100890.34;4991936;28;20178;-71
2023/09/26 06:35:02;;;;;;;3.20;1.97;;;;;;;18.92;65.09;100890.34;4958646;28;20508;-71
2023/09/26 06:37:28;;;;;;;3.30;1.90;;;;;;;18.92;65.05;100889.53;4988766;28;20555;-71
2023/09/26 06:39:55;;;;;;;3.00;1.67;;;;;;;18.92;65.40;100890.34;4974163;28;20185;-71
2023/09/26 06:42:21;;;;;;;2.80;1.67;;;;;;;18.92;65.37;100892.38;5007228;28;20202;-71
2023/09/26 06:44:48;;;;;;;2.70;1.90;;;;;;;18.92;65.40;100890.34;4979528;28;20449;-71
2023/09/26 06:47:14;;;;;;;3.40;2.00;;;;;;;18.92;64.97;100898.09;4991525;28;20209;-71
2023/09/26 06:49:39;;;;;;;3.03;1.87;;;;;;;18.92;65.19;100896.06;4971167;28;20433;-68
2023/09/26 06:52:05;;;;;;;3.47;2.20;;;;;;;18.92;65.49;100895.25;4987777;28;20182;-68
2023/09/26 06:54:31;;;;;;;2.73;1.60;;;;;;;18.92;64.75;100898.09;4989572;28;20618;-67
2023/09/26 06:56:57;;;;;;;3.30;1.80;;;;;;;18.92;65.24;100895.25;4989041;28;20420;-68
2023/09/26 06:59:22;;;;;;;2.70;1.57;;;;;;;18.92;65.09;100900.97;4989630;28;20166;-68
2023/09/26 07:01:47;;;;;;;3.17;2.20;;;;;;;18.92;65.14;100901.78;4973360;28;20689;-67
2023/09/26 07:04:14;;;;;;;3.67;2.17;;;;;;;18.92;65.13;100900.97;4972047;28;20201;-67
2023/09/26 07:06:40;;;;;;;2.60;1.67;;;;;;;18.92;65.14;100903.84;4956951;28;20224;-68
2023/09/26 07:09:07;;;;;;;2.97;1.60;;;;;;;18.91;65.08;100902.16;4970507;28;20499;-68
2023/09/26 07:11:33;;;;;;;2.90;1.80;;;;;;;18.91;64.99;100905.84;4983477;28;20848;-68
2023/09/26 07:13:58;;;;;;;3.30;1.53;;;;;;;18.91;65.56;100902.97;4985888;28;20425;-68
2023/09/26 07:16:24;;;;;;;3.40;1.80;;;;;;;18.91;65.20;100905.84;4973594;28;20266;-67
2023/09/26 07:18:50;;;;;;;3.10;1.80;;;;;;;18.91;65.07;100911.56;4973044;28;20554;-68
2023/09/26 07:21:15;;;;;;;4.10;2.07;;;;;;;18.91;65.37;100905.84;4989897;28;20205;-68
2023/09/26 07:23:41;;;;;;;3.13;1.70;;;;;;;18.91;65.40;100900.13;4992556;28;20444;-68
2023/09/26 07:26:12;;;;;;;3.07;1.90;;;;;;;18.91;65.37;100911.56;4938264;28;20185;-68
2023/09/26 07:28:38;;;;;;;3.20;1.73;;;;;;;18.92;64.97;100918.13;4954646;28;20177;-68
2023/09/26 07:31:04;;;;;;;3.37;1.80;;;;;;;18.92;65.26;100913.22;4973666;28;20850;-67
2023/09/26 07:33:30;;;;;;;2.90;1.60;;;;;;;18.91;65.20;100914.44;4970121;28;20422;-68
2023/09/26 07:35:55;;;;;;;2.87;1.67;;;;;;;18.91;65.36;100917.28;4970829;28;20178;-67
2023/09/26 07:38:21;;;;;;;3.07;1.83;;;;;;;18.91;65.22;100914.44;4957195;28;20178;-67
2023/09/26 07:40:46;;;;;;;3.40;1.60;;;;;;;18.91;64.91;100910.75;4969908;28;20940;-68
2023/09/26 07:43:13;;;;;;;3.30;1.80;;;;;;;18.93;65.10;100914.06;4973256;28;20181;-69
2023/09/26 07:45:39;;;;;;;2.87;1.70;;;;;;;18.92;65.21;100906.69;4972335;28;20209;-67
2023/09/26 07:48:04;;;;;;;3.27;1.80;;;;;;;18.91;65.28;100905.84;4972955;28;20464;-67
2023/09/26 07:50:30;;;;;;;2.87;1.83;;;;;;;18.91;65.03;100905.84;4986423;28;20602;-68
2023/09/26 07:52:55;;;;;;;2.27;1.43;;;;;;;18.92;65.12;100909.56;4969351;28;20175;-67
2023/09/26 07:55:21;;;;;;;3.17;1.93;;;;;;;18.90;65.19;100907.06;4978481;28;20177;-68
2023/09/26 07:57:46;;;;;;;2.27;1.37;;;;;;;18.90;65.06;100903.34;4955439;28;20186;-71
2023/09/26 08:00:13;;;;;;;2.80;1.80;;;;;;;18.91;65.19;100910.75;4957384;28;20646;-71
2023/09/26 08:02:38;;;;;;;2.23;1.50;;;;;;;18.91;64.99;100908.72;4968080;28;20201;-70
2023/09/26 08:05:04;;;;;;;3.13;1.57;;;;;;;18.90;65.31;100909.91;4992212;28;21117;-71
2023/09/26 08:07:30;;;;;;;2.53;1.80;;;;;;;18.91;65.34;100905.84;5008539;28;20174;-71
2023/09/26 08:10:00;;;;;;;3.70;2.00;;;;;;;18.91;65.04;100913.63;4990411;28;20209;-71
2023/09/26 08:12:26;;;;;;;2.47;1.57;;;;;;;18.91;65.19;100907.91;4964702;28;20186;-71
2023/09/26 08:14:55;;;;;;;2.53;1.47;;;;;;;18.90;65.13;100904.19;4976077;28;20503;-71
2023/09/26 08:17:20;;;;;;;3.20;1.80;;;;;;;18.90;65.09;100901.34;4970740;28;20481;-71
2023/09/26 08:19:45;;;;;;;2.87;1.60;;;;;;;18.90;65.11;100904.19;4937217;29;20439;-71
2023/09/26 08:22:11;;;;;;;3.27;1.93;;;;;;;18.90;65.10;100904.19;4977351;28;20183;-71
2023/09/26 08:24:36;;;;;;;2.67;1.83;;;;;;;18.91;65.16;100910.75;4964081;28;20202;-71
2023/09/26 08:27:02;;;;;;;2.90;1.80;;;;;;;18.90;65.05;100907.06;4966763;28;20209;-71
2023/09/26 08:29:27;;;;;;;2.57;1.63;;;;;;;18.91;64.95;100905.03;4968565;28;20217;-71
2023/09/26 08:31:54;;;;;;;2.60;1.73;;;;;;;18.91;65.04;100899.31;4958051;28;20671;-71
2023/09/26 08:34:19;;;;;;;2.50;1.53;;;;;;;18.90;65.01;100907.06;4936195;29;20179;-71
2023/09/26 08:36:46;;;;;;;2.43;1.53;;;;;;;18.90;65.19;100904.19;4938620;28;20442;-71
2023/09/26 08:39:12;;;;;;;2.53;1.70;;;;;;;18.90;64.99;100898.47;4966158;28;20186;-71
2023/09/26 08:41:37;;;;;;;2.93;1.83;;;;;;;18.90;65.06;100892.75;4959077;28;20441;-71
2023/09/26 08:44:03;;;;;;;2.67;1.67;;;;;;;18.90;65.04;100889.88;4956256;28;20211;-71
2023/09/26 08:46:28;;;;;;;2.60;1.63;;;;;;;18.91;65.18;100891.53;4963141;28;20194;-71
2023/09/26 08:48:54;;;;;;;3.03;1.70;;;;;;;18.90;65.30;100892.75;4953074;28;20442;-71
2023/09/26 08:51:19;;;;;;;3.10;1.40;;;;;;;18.91;65.12;100899.31;4984259;28;20237;-71
2023/09/26 08:53:45;;;;;;;3.10;2.10;;;;;;;18.89;65.14;100879.66;4966720;28;20197;-71
2023/09/26 08:56:11;;;;;;;2.60;1.70;;;;;;;18.90;65.13;100881.31;4979676;28;20194;-71
2023/09/26 08:58:36;;;;;;;2.33;1.40;;;;;;;18.90;65.11;100887.03;4966820;28;20252;-71
2023/09/26 09:01:02;;;;;;;3.10;1.77;;;;;;;18.90;64.94;100887.03;4949796;28;20685;-71
2023/09/26 09:03:28;;;;;;;3.00;1.60;;;;;;;18.90;65.16;100884.16;4950175;28;20237;-71
2023/09/26 09:05:54;;;;;;;3.23;1.80;;;;;;;18.91;65.00;100887.88;4960804;28;20472;-71
2023/09/26 09:08:21;;;;;;;2.80;1.60;;;;;;;18.91;65.35;100882.97;4964437;28;20190;-71
2023/09/26 09:10:56;;;;;;;2.40;1.30;;;;;;;18.90;65.39;100881.31;4964385;28;20801;-71
2023/09/26 09:13:33;;;;;;;2.60;1.60;;;;;;;18.90;65.11;100869.84;4968030;28;20435;-71
2023/09/26 09:16:12;;;;;;;2.63;1.60;;;;;;;18.91;65.09;100882.16;4968423;28;20611;-71
2023/09/26 09:18:38;;;;;;;2.60;1.80;;;;;;;18.90;65.33;100881.31;4984245;28;20430;-71
2023/09/26 09:21:19;;;;;;;2.43;1.43;;;;;;;18.91;65.17;100879.28;4985991;28;20552;-71
2023/09/26 09:23:48;;;;;;;2.60;1.57;;;;;;;18.91;65.21;100862.13;4987736;28;20421;-71
2023/09/26 09:26:14;;;;;;;3.00;1.60;;;;;;;18.89;65.13;100862.47;4989884;28;20774;-71
2023/09/26 09:28:39;;;;;;;2.23;1.30;;;;;;;18.91;65.17;100859.25;4987096;28;20496;-71
2023/09/26 09:31:04;;;;;;;3.73;1.60;;;;;;;18.90;65.29;100861.28;4988882;28;20197;-71
2023/09/26 09:33:31;;;;;;;2.97;1.70;;;;;;;18.90;65.38;100858.41;5003666;28;20240;-71
2023/09/26 09:35:56;;;;;;;3.87;2.00;;;;;;;18.90;65.40;100855.56;4974320;28;20272;-71
2023/09/26 09:38:22;;;;;;;2.70;1.87;;;;;;;18.90;65.28;100846.97;4989971;28;20906;-71
2023/09/26 09:40:47;;;;;;;3.20;1.77;;;;;;;18.90;64.89;100846.13;4987530;28;20724;-71
2023/09/26 09:43:13;;;;;;;2.77;1.90;;;;;;;18.92;65.29;100850.28;4970932;28;20221;-71
2023/09/26 09:45:38;;;;;;;3.30;1.33;;;;;;;18.91;65.21;100847.81;4973259;28;20249;-71
2023/09/26 09:48:06;;;;;;;2.40;1.30;;;;;;;18.90;65.32;100849.84;4969242;28;20182;-72
2023/09/26 09:50:32;;;;;;;2.80;1.80;;;;;;;18.89;65.34;100851.03;4972723;28;20207;-72
2023/09/26 09:53:00;;;;;;;2.70;1.50;;;;;;;18.90;65.17;100846.97;4989924;28;20425;-71
2023/09/26 09:55:29;;;;;;;2.90;1.50;;;;;;;18.90;65.06;100841.25;4971382;28;20189;-71
2023/09/26 09:57:56;;;;;;;2.83;1.60;;;;;;;18.92;65.09;100835.97;4982385;28;20445;-72
2023/09/26 10:00:24;;;;;;;2.77;1.50;;;;;;;18.91;65.16;100837.19;4989071;28;21160;-71
2023/09/26 10:02:51;;;;;;;2.37;1.37;;;;;;;18.91;65.08;100842.91;4986709;28;20441;-71
2023/09/26 10:05:19;;;;;;;2.03;1.33;;;;;;;18.91;65.37;100834.31;4977118;28;20469;-72
2023/09/26 10:07:45;;;;;;;2.97;1.40;;;;;;;18.92;65.33;100832.28;4991348;28;20483;-72
2023/09/26 10:10:11;;;;;;;2.83;1.60;;;;;;;18.92;65.30;100826.56;4971189;28;20493;-72
2023/09/26 10:12:38;;;;;;;2.70;1.80;;;;;;;18.93;65.05;100828.22;4970788;28;20425;-72
2023/09/26 10:15:09;;;;;;;3.30;2.00;;;;;;;18.93;65.17;100823.34;4990721;28;20429;-71
2023/09/26 10:17:35;;;;;;;2.47;1.50;;;;;;;18.93;65.28;100825.38;5002993;28;20484;-72
2023/09/26 10:20:01;;;;;;;3.13;1.73;;;;;;;18.93;65.16;100823.34;4989520;28;20455;-72
2023/09/26 10:22:33;;;;;;;2.73;1.50;;;;;;;18.93;65.06;100813.94;4989811;28;20443;-72
2023/09/26 10:24:58;;;;;;;2.13;1.40;;;;;;;18.93;65.08;100822.50;4987109;28;20217;-71
2023/09/26 10:27:30;;;;;;;2.20;1.50;;;;;;;18.94;65.04;100819.28;4964373;28;20429;-71
2023/09/26 10:29:55;;;;;;;2.53;1.50;;;;;;;18.94;65.24;100815.56;4990586;28;20185;-72
2023/09/26 10:32:34;;;;;;;3.80;1.80;;;;;;;18.94;65.11;100812.72;5002737;28;20437;-72
2023/09/26 10:35:02;;;;;;;2.77;1.60;;;;;;;18.94;65.14;100810.69;4987386;28;20220;-72
2023/09/26 10:37:28;;;;;;;2.10;1.30;;;;;;;18.94;65.04;100799.25;5003619;28;20929;-72
2023/09/26 10:39:53;;;;;;;2.20;1.20;;;;;;;18.94;65.06;100813.56;4972599;28;20476;-72
2023/09/26 10:42:23;;;;;;;3.00;1.50;;;;;;;18.95;65.06;100800.91;4969471;28;20341;-71
2023/09/26 10:44:50;;;;;;;2.30;1.60;;;;;;;18.95;65.01;100809.50;4987642;28;20201;-72
2023/09/26 10:47:20;;;;;;;2.20;1.40;;;;;;;18.95;64.94;100798.03;4988149;28;21221;-71
2023/09/26 10:49:45;;;;;;;2.13;1.20;;;;;;;18.96;65.09;100804.63;4964335;28;20445;-71
2023/09/26 10:52:11;;;;;;;2.83;1.60;;;;;;;18.96;65.02;100805.41;4972868;28;20448;-71
2023/09/26 10:54:37;;;;;;;2.30;1.27;;;;;;;18.95;65.14;100803.78;4999223;28;20178;-71
2023/09/26 10:57:04;;;;;;;2.67;1.73;;;;;;;18.97;65.13;100800.53;4965382;28;20196;-71
2023/09/26 10:59:29;;;;;;;2.33;1.20;;;;;;;18.96;65.23;100798.88;4973015;28;20189;-71
2023/09/26 11:01:59;;;;;;;2.00;1.23;;;;;;;18.97;64.96;100807.06;4988391;28;20900;-72
2023/09/26 11:04:29;;;;;;;2.40;1.57;;;;;;;18.98;65.12;100802.19;5004788;28;20720;-71
2023/09/26 11:06:59;;;;;;;2.73;1.80;;;;;;;18.98;64.96;100790.75;4987864;28;20520;-72
2023/09/26 11:09:25;;;;;;;2.40;1.43;;;;;;;18.97;65.13;100795.63;4987602;28;20464;-71
2023/09/26 11:11:51;;;;;;;3.13;2.20;;;;;;;18.97;65.28;100795.63;4969019;28;20493;-71
2023/09/26 11:14:17;;;;;;;2.83;1.50;;;;;;;18.98;65.15;100785.88;4997323;28;20457;-71
2023/09/26 11:16:42;;;;;;;3.13;1.47;;;;;;;18.96;65.39;100793.97;4998765;28;20234;-71
2023/09/26 11:19:11;;;;;;;2.73;1.40;;;;;;;18.99;64.98;100787.53;4989206;28;20675;-71
2023/09/26 11:21:36;;;;;;;2.73;1.33;;;;;;;19.01;64.99;100790.03;4984999;28;20177;-72